Time;durP1;ratioP1;P1;durP2;ratioP2;P2;SDS_P1;SDS_P2;PMS_P1;PMS_P2;Temp;Humidity;BMP_temperature;BMP_pressure;BME280_temperature;BME280_humidity;BME280_pressure;Samples;Min_cycle;Max_cycle;Signal;HPM_P1;HPM_P2
2021/03/08 00:03:56;;;;;;;12.30;11.03;;;3.10;71.60;;;;;;10521804;28;20211;-78
2021/03/08 00:08:58;;;;;;;12.20;11.00;;;3.10;72.30;;;;;;10521653;28;20200;-77
2021/03/08 00:14:01;;;;;;;12.77;11.47;;;3.10;71.90;;;;;;10516761;28;20226;-78
2021/03/08 00:19:02;;;;;;;11.80;10.60;;;3.20;72.30;;;;;;10521960;28;20231;-78
2021/03/08 00:24:05;;;;;;;12.30;11.10;;;3.20;71.30;;;;;;10523087;28;20223;-78
2021/03/08 00:29:07;;;;;;;11.53;10.53;;;3.20;71.30;;;;;;10529516;28;20245;-78
2021/03/08 00:34:09;;;;;;;11.87;10.70;;;3.10;71.30;;;;;;10540706;28;20216;-77
2021/03/08 00:39:10;;;;;;;11.67;10.43;;;3.10;71.60;;;;;;10528396;28;20204;-78
2021/03/08 00:44:13;;;;;;;12.83;11.53;;;3.00;71.80;;;;;;10527021;28;20240;-78
2021/03/08 00:49:14;;;;;;;14.10;11.13;;;3.00;71.10;;;;;;10519147;28;20402;-78
2021/03/08 00:54:16;;;;;;;11.57;10.50;;;3.00;71.00;;;;;;10518435;28;20286;-79
2021/03/08 00:59:19;;;;;;;12.43;11.13;;;2.90;70.80;;;;;;10537114;28;20308;-78
2021/03/08 01:04:21;;;;;;;10.83;9.73;;;2.90;70.90;;;;;;10536898;28;20212;-77
2021/03/08 01:09:23;;;;;;;11.27;10.17;;;3.00;71.00;;;;;;10537718;28;20739;-79
2021/03/08 01:14:25;;;;;;;11.70;10.50;;;2.90;70.40;;;;;;10538768;28;20267;-78
2021/03/08 01:19:27;;;;;;;11.73;10.53;;;2.90;70.40;;;;;;10539722;28;20197;-78
2021/03/08 01:24:29;;;;;;;12.87;11.57;;;2.80;70.00;;;;;;10544843;28;20219;-76
2021/03/08 01:29:31;;;;;;;12.93;11.37;;;2.80;70.60;;;;;;10529578;28;20215;-77
2021/03/08 01:34:33;;;;;;;11.23;10.13;;;2.70;70.30;;;;;;10526773;28;20724;-78
2021/03/08 01:39:35;;;;;;;13.27;11.90;;;2.70;70.60;;;;;;10531666;28;20196;-77
2021/03/08 01:44:37;;;;;;;12.40;11.20;;;2.60;71.00;;;;;;10530424;28;20205;-78
2021/03/08 01:49:39;;;;;;;12.53;11.27;;;2.60;70.70;;;;;;10531647;28;20208;-78
2021/03/08 01:54:41;;;;;;;12.30;11.00;;;2.70;71.00;;;;;;10542611;28;20192;-78
2021/03/08 01:59:44;;;;;;;12.80;11.50;;;2.60;70.90;;;;;;10516954;28;20598;-78
2021/03/08 02:04:46;;;;;;;12.50;10.53;;;2.60;71.10;;;;;;10521504;28;20268;-79
2021/03/08 02:09:47;;;;;;;13.00;11.60;;;2.60;71.20;;;;;;10517103;28;20228;-78
2021/03/08 02:15:08;;;;;;;12.70;11.47;;;2.60;71.20;;;;;;10528966;28;20663;-78
2021/03/08 02:20:42;;;;;;;11.57;10.37;;;2.60;71.50;;;;;;10542508;28;20211;-79
2021/03/08 02:26:11;;;;;;;13.93;12.53;;;2.60;71.90;;;;;;10543396;28;20222;-78
2021/03/08 02:31:15;;;;;;;12.17;10.97;;;2.50;71.80;;;;;;10542093;28;20224;-79
2021/03/08 02:36:18;;;;;;;14.47;13.00;;;2.50;72.40;;;;;;10543256;28;20196;-79
2021/03/08 02:41:22;;;;;;;14.53;13.03;;;2.50;72.00;;;;;;10542676;28;20290;-78
2021/03/08 02:46:27;;;;;;;13.43;12.03;;;2.40;72.40;;;;;;10542773;28;20633;-78
2021/03/08 02:51:31;;;;;;;14.67;13.17;;;2.40;73.00;;;;;;10544478;28;20224;-79
2021/03/08 02:56:35;;;;;;;14.50;13.07;;;2.30;73.20;;;;;;10543693;28;20225;-79
2021/03/08 03:01:38;;;;;;;14.27;12.77;;;2.30;73.00;;;;;;10543574;28;20261;-80
2021/03/08 03:06:42;;;;;;;15.20;13.70;;;2.20;73.60;;;;;;10525620;28;20227;-78
2021/03/08 03:11:48;;;;;;;14.90;13.40;;;2.20;73.50;;;;;;10543949;28;20306;-79
2021/03/08 03:16:55;;;;;;;16.70;14.90;;;2.20;73.30;;;;;;10542945;28;20624;-78
2021/03/08 03:22:00;;;;;;;16.10;14.40;;;2.10;73.70;;;;;;10544111;28;20300;-79
2021/03/08 03:27:03;;;;;;;15.80;14.10;;;2.10;74.10;;;;;;10540589;28;20220;-78
2021/03/08 03:32:07;;;;;;;14.93;13.50;;;2.00;73.80;;;;;;10541394;28;20269;-78
2021/03/08 03:37:09;;;;;;;16.40;14.77;;;1.90;74.30;;;;;;10540778;28;20200;-78
2021/03/08 03:42:11;;;;;;;16.10;14.40;;;1.90;74.70;;;;;;10542831;28;20711;-78
2021/03/08 03:47:16;;;;;;;15.80;14.07;;;1.80;74.40;;;;;;10542046;28;20215;-78
2021/03/08 03:52:17;;;;;;;16.80;15.17;;;1.70;74.90;;;;;;10557583;28;20207;-79
2021/03/08 03:57:21;;;;;;;15.57;14.07;;;1.80;75.30;;;;;;10540908;28;20200;-78
2021/03/08 04:02:30;;;;;;;17.77;15.87;;;1.80;75.10;;;;;;10548890;28;20687;-79
2021/03/08 04:07:36;;;;;;;17.10;15.40;;;1.70;75.10;;;;;;10549009;28;20220;-79
2021/03/08 04:12:39;;;;;;;16.40;14.70;;;1.70;75.60;;;;;;10550489;28;20245;-78
2021/03/08 04:17:42;;;;;;;16.73;14.93;;;1.70;75.90;;;;;;10551461;28;20203;-78
2021/03/08 04:22:47;;;;;;;17.00;15.27;;;1.60;75.60;;;;;;10551033;28;20211;-78
2021/03/08 04:27:50;;;;;;;16.63;14.90;;;1.60;75.90;;;;;;10558146;28;20549;-79
2021/03/08 04:32:54;;;;;;;17.50;15.80;;;1.60;75.80;;;;;;10554459;28;20246;-79
2021/03/08 04:37:58;;;;;;;17.20;15.40;;;1.50;76.10;;;;;;10548217;28;20187;-79
2021/03/08 04:43:02;;;;;;;18.27;16.37;;;1.50;76.30;;;;;;10549907;28;20707;-79
2021/03/08 04:48:06;;;;;;;17.60;15.80;;;1.40;76.80;;;;;;10549470;28;20252;-79
2021/03/08 04:53:09;;;;;;;17.00;15.30;;;1.40;76.80;;;;;;10549478;28;20569;-79
2021/03/08 04:58:11;;;;;;;18.13;14.70;;;1.40;76.60;;;;;;10549617;28;20723;-79
2021/03/08 05:03:15;;;;;;;17.60;15.80;;;1.40;76.80;;;;;;10544041;28;20281;-79
2021/03/08 05:08:17;;;;;;;16.90;15.10;;;1.40;76.90;;;;;;10529640;28;20283;-80
2021/03/08 05:13:21;;;;;;;16.57;14.87;;;1.40;76.90;;;;;;10547341;28;20220;-79
2021/03/08 05:18:24;;;;;;;18.00;16.07;;;1.40;77.10;;;;;;10563536;28;20202;-79
2021/03/08 05:23:27;;;;;;;17.53;15.70;;;1.30;77.10;;;;;;10561083;28;20320;-79
2021/03/08 05:28:31;;;;;;;17.17;15.37;;;1.30;77.20;;;;;;10539451;28;20223;-78
2021/03/08 05:33:36;;;;;;;17.73;15.93;;;1.30;77.10;;;;;;10558668;28;20323;-79
2021/03/08 05:38:40;;;;;;;17.40;15.60;;;1.30;77.40;;;;;;10544585;28;20227;-78
2021/03/08 05:43:46;;;;;;;18.37;16.43;;;1.30;77.10;;;;;;10540130;28;20242;-78
2021/03/08 05:49:21;;;;;;;18.17;15.90;;;1.30;77.80;;;;;;10541890;28;20225;-79
2021/03/08 05:55:10;;;;;;;18.30;16.50;;;1.30;78.30;;;;;;10519614;28;20256;-79
2021/03/08 06:00:26;;;;;;;19.57;16.47;;;1.30;77.90;;;;;;10528554;28;20235;-80
2021/03/08 06:06:22;;;;;;;22.27;19.37;;;1.30;77.40;;;;;;10494273;28;20208;-80
2021/03/08 06:11:25;;;;;;;21.17;19.07;;;1.20;77.80;;;;;;10483437;28;20520;-80
2021/03/08 06:16:32;;;;;;;21.60;19.27;;;1.20;78.00;;;;;;10526136;28;20196;-80
2021/03/08 06:21:34;;;;;;;25.43;22.10;;;1.10;78.20;;;;;;10531005;28;20247;-80
2021/03/08 06:26:39;;;;;;;20.93;18.83;;;1.10;78.60;;;;;;10519404;28;20259;-81
2021/03/08 06:31:43;;;;;;;21.40;19.00;;;1.20;79.50;;;;;;10523505;28;20226;-79
2021/03/08 06:36:46;;;;;;;20.10;17.97;;;1.20;78.90;;;;;;10536931;28;20196;-80
2021/03/08 06:41:49;;;;;;;19.27;16.70;;;1.30;79.20;;;;;;10539889;28;20307;-80
2021/03/08 06:46:51;;;;;;;20.87;18.07;;;1.40;79.20;;;;;;10538339;28;20447;-80
2021/03/08 06:52:04;;;;;;;22.03;19.00;;;1.50;78.90;;;;;;10538455;28;20307;-81
2021/03/08 06:57:25;;;;;;;19.67;17.60;;;1.50;78.50;;;;;;10528508;28;20348;-81
2021/03/08 07:02:36;;;;;;;19.87;17.20;;;1.60;78.70;;;;;;10538403;28;20219;-81
2021/03/08 07:07:51;;;;;;;19.70;17.60;;;1.70;78.70;;;;;;10539760;28;20309;-80
2021/03/08 07:12:54;;;;;;;20.23;17.97;;;1.70;78.90;;;;;;10537578;28;20224;-81
2021/03/08 07:17:57;;;;;;;20.87;17.60;;;1.80;78.70;;;;;;10538643;28;20191;-80
2021/03/08 07:22:59;;;;;;;22.80;19.50;;;1.90;78.50;;;;;;10538506;28;20224;-79
2021/03/08 07:28:03;;;;;;;20.60;17.60;;;2.10;79.10;;;;;;10538334;28;20223;-81
2021/03/08 07:33:06;;;;;;;21.67;18.07;;;2.20;78.00;;;;;;10533314;28;20230;-81
2021/03/08 07:38:10;;;;;;;20.73;18.23;;;2.30;78.70;;;;;;10533314;28;20854;-80
2021/03/08 07:43:21;;;;;;;22.03;19.47;;;2.40;78.60;;;;;;10537698;28;20211;-79
2021/03/08 07:48:23;;;;;;;19.93;17.80;;;2.60;78.40;;;;;;10546000;28;20227;-79
2021/03/08 07:53:30;;;;;;;23.60;18.53;;;2.70;79.00;;;;;;10545149;28;20276;-80
2021/03/08 07:58:34;;;;;;;24.13;21.60;;;2.90;77.20;;;;;;10545723;28;20223;-80
2021/03/08 08:03:36;;;;;;;20.57;17.97;;;3.00;77.50;;;;;;10540848;28;20246;-80
2021/03/08 08:08:43;;;;;;;22.53;19.63;;;3.20;76.90;;;;;;10524883;28;20561;-80
2021/03/08 08:13:49;;;;;;;24.40;19.50;;;3.30;76.80;;;;;;10528547;22;718760;-79
2021/03/08 08:18:57;;;;;;;23.00;19.63;;;3.40;76.30;;;;;;10535829;28;20722;-81
2021/03/08 08:24:02;;;;;;;21.47;18.27;;;3.50;76.00;;;;;;10512094;28;20239;-81
2021/03/08 08:29:05;;;;;;;20.67;18.47;;;3.60;76.60;;;;;;10512038;28;20219;-80
2021/03/08 08:34:34;;;;;;;21.07;18.50;;;3.70;75.70;;;;;;10510006;28;20216;-81
2021/03/08 08:39:36;;;;;;;19.63;17.63;;;3.90;75.70;;;;;;10546374;28;20263;-80
2021/03/08 08:44:39;;;;;;;20.53;18.33;;;4.00;74.90;;;;;;10548346;28;20307;-81
2021/03/08 08:49:43;;;;;;;20.33;17.53;;;4.10;74.60;;;;;;10500940;28;20582;-81
2021/03/08 08:54:56;;;;;;;19.90;17.80;;;4.30;75.00;;;;;;10485627;28;20189;-81
2021/03/08 09:00:17;;;;;;;20.67;18.40;;;4.50;74.10;;;;;;10483523;28;20196;-81
2021/03/08 09:05:38;;;;;;;21.00;18.80;;;4.60;73.20;;;;;;10493816;28;20220;-80
2021/03/08 09:10:40;;;;;;;19.73;17.83;;;4.70;72.60;;;;;;10506097;28;20232;-81
2021/03/08 09:15:43;;;;;;;20.30;16.67;;;4.80;72.90;;;;;;10490545;28;20217;-81
2021/03/08 09:20:44;;;;;;;19.20;16.20;;;5.00;72.50;;;;;;10503286;28;20213;-80
2021/03/08 09:25:55;;;;;;;18.37;16.67;;;5.20;70.80;;;;;;10488859;28;20228;-81
2021/03/08 09:30:58;;;;;;;18.00;16.10;;;5.40;71.20;;;;;;10524602;28;20707;-80
2021/03/08 09:36:01;;;;;;;16.33;14.60;;;5.60;70.00;;;;;;10545413;28;20259;-80
2021/03/08 09:41:03;;;;;;;16.57;14.87;;;5.80;68.30;;;;;;10545041;28;20227;-81
2021/03/08 09:46:07;;;;;;;15.50;13.90;;;5.90;69.10;;;;;;10543940;28;20307;-81
2021/03/08 09:51:11;;;;;;;15.30;13.77;;;6.20;68.50;;;;;;10544402;28;20223;-81
2021/03/08 09:56:15;;;;;;;15.20;13.70;;;6.40;66.20;;;;;;10506179;28;20516;-81
2021/03/08 10:01:19;;;;;;;15.60;14.13;;;6.60;67.50;;;;;;10502005;28;20310;-81
2021/03/08 10:06:23;;;;;;;24.40;15.70;;;6.70;66.30;;;;;;10518034;28;20216;-81
2021/03/08 10:11:26;;;;;;;15.57;14.07;;;6.90;65.30;;;;;;10507020;28;20233;-79
2021/03/08 10:16:30;;;;;;;15.00;13.60;;;6.80;65.50;;;;;;10522094;28;20277;-81
2021/03/08 10:21:40;;;;;;;16.60;15.00;;;6.90;64.80;;;;;;10505207;28;20707;-81
2021/03/08 10:26:44;;;;;;;14.50;13.10;;;6.80;65.00;;;;;;10503837;28;20284;-80
2021/03/08 10:31:47;;;;;;;15.40;13.80;;;6.60;64.60;;;;;;10503371;28;20225;-81
2021/03/08 10:36:49;;;;;;;14.20;12.90;;;6.50;64.80;;;;;;10509043;28;20212;-80
2021/03/08 10:41:52;;;;;;;13.87;12.47;;;6.50;64.80;;;;;;10502125;28;20225;-81
2021/03/08 10:46:55;;;;;;;13.77;12.37;;;6.40;63.10;;;;;;10485588;28;20218;-81
2021/03/08 10:52:09;;;;;;;13.87;12.47;;;6.40;63.30;;;;;;10483764;28;20268;-80
2021/03/08 10:57:11;;;;;;;14.73;13.37;;;6.30;64.30;;;;;;10543166;28;20273;-81
2021/03/08 11:02:16;;;;;;;12.33;11.03;;;6.30;65.70;;;;;;10514818;28;20299;-81
2021/03/08 11:07:30;;;;;;;13.23;10.40;;;6.40;63.70;;;;;;10483163;28;20244;-81
2021/03/08 11:12:32;;;;;;;12.37;11.20;;;6.30;61.30;;;;;;10497827;28;20271;-81
2021/03/08 11:17:36;;;;;;;12.50;11.30;;;6.30;61.80;;;;;;10488129;28;20192;-81
2021/03/08 11:22:55;;;;;;;12.60;11.33;;;6.30;62.00;;;;;;10501111;28;20243;-81
2021/03/08 11:27:57;;;;;;;12.73;11.20;;;6.40;63.10;;;;;;10493840;28;20220;-80
2021/03/08 11:33:01;;;;;;;15.20;13.70;;;6.40;62.70;;;;;;10525469;28;20220;-81
2021/03/08 11:38:05;;;;;;;13.67;12.40;;;6.50;62.90;;;;;;10542187;28;20608;-79
2021/03/08 11:43:07;;;;;;;14.43;12.93;;;6.50;62.60;;;;;;10518943;28;20220;-79
2021/03/08 11:48:10;;;;;;;13.07;11.87;;;6.60;62.40;;;;;;10487813;28;20315;-80
2021/03/08 11:53:13;;;;;;;13.57;12.23;;;6.60;62.70;;;;;;10489997;28;20299;-80
2021/03/08 11:58:18;;;;;;;14.10;12.70;;;6.70;62.70;;;;;;10486404;28;20201;-80
2021/03/08 12:03:20;;;;;;;13.43;11.57;;;6.80;62.60;;;;;;10474702;28;20233;-81
2021/03/08 12:08:22;;;;;;;12.50;11.30;;;6.80;61.20;;;;;;10473574;28;20337;-80
2021/03/08 12:13:23;;;;;;;12.90;11.60;;;6.80;59.10;;;;;;10473989;28;20304;-82
2021/03/08 12:18:26;;;;;;;13.67;12.27;;;6.80;60.00;;;;;;10484144;28;20189;-80
2021/03/08 12:23:27;;;;;;;15.70;12.43;;;6.90;59.70;;;;;;10484207;28;20596;-81
2021/03/08 12:28:29;;;;;;;12.07;10.93;;;6.80;59.10;;;;;;10484932;28;20934;-81
2021/03/08 12:33:32;;;;;;;12.00;10.90;;;6.80;57.00;;;;;;10485991;28;20244;-81
2021/03/08 12:38:34;;;;;;;11.83;10.73;;;6.80;57.10;;;;;;10478238;28;20196;-79
2021/03/08 12:43:36;;;;;;;13.03;11.73;;;6.80;58.90;;;;;;10496238;28;20216;-80
2021/03/08 12:48:39;;;;;;;12.03;10.83;;;6.90;58.80;;;;;;10490325;28;20213;-81
2021/03/08 12:53:40;;;;;;;11.80;10.70;;;7.00;57.60;;;;;;10484230;28;20212;-81
2021/03/08 12:58:42;;;;;;;13.63;11.80;;;7.00;56.70;;;;;;10484192;28;20247;-80
2021/03/08 13:03:45;;;;;;;12.80;11.50;;;7.00;56.50;;;;;;10485561;28;20288;-81
2021/03/08 13:08:46;;;;;;;13.53;12.30;;;7.10;57.10;;;;;;10478549;28;20243;-81
2021/03/08 13:13:48;;;;;;;14.30;11.40;;;7.20;56.90;;;;;;10485664;28;20600;-79
2021/03/08 13:18:51;;;;;;;11.23;10.03;;;7.20;55.10;;;;;;10492355;28;20550;-80
2021/03/08 13:23:53;;;;;;;13.03;11.63;;;7.20;56.40;;;;;;10502857;28;20227;-81
2021/03/08 13:28:56;;;;;;;12.27;11.07;;;7.30;55.60;;;;;;10520693;28;20268;-80
2021/03/08 13:33:58;;;;;;;11.37;10.27;;;7.40;55.40;;;;;;10475819;28;20217;-81
2021/03/08 13:39:00;;;;;;;12.17;10.80;;;7.50;56.30;;;;;;10500686;28;20284;-80
2021/03/08 13:44:02;;;;;;;12.30;11.00;;;7.50;55.90;;;;;;10494535;28;20212;-81
2021/03/08 13:49:04;;;;;;;11.90;10.70;;;7.50;55.10;;;;;;10499416;28;20230;-81
2021/03/08 13:54:06;;;;;;;12.37;11.07;;;7.50;57.20;;;;;;10490581;28;20346;-81
2021/03/08 13:59:08;;;;;;;11.80;10.60;;;7.60;56.10;;;;;;10529359;28;20200;-80
2021/03/08 14:04:10;;;;;;;13.20;11.90;;;7.70;57.70;;;;;;10544400;28;20246;-80
2021/03/08 14:09:12;;;;;;;11.10;10.10;;;7.70;56.00;;;;;;10544752;28;20211;-81
2021/03/08 14:14:14;;;;;;;10.93;9.83;;;7.70;54.40;;;;;;10527597;22;20217;-81
2021/03/08 14:19:16;;;;;;;11.87;10.70;;;7.80;54.70;;;;;;10503005;28;20196;-82
2021/03/08 14:24:18;;;;;;;10.23;9.20;;;7.80;54.70;;;;;;10499973;28;20299;-81
2021/03/08 14:29:20;;;;;;;10.43;9.43;;;7.90;55.80;;;;;;10507648;28;20261;-80
2021/03/08 14:34:22;;;;;;;9.47;8.53;;;7.90;53.40;;;;;;10507792;28;20727;-80
2021/03/08 14:39:24;;;;;;;9.90;9.00;;;8.00;53.80;;;;;;10495747;28;20288;-80
2021/03/08 14:44:26;;;;;;;11.43;10.30;;;8.00;54.10;;;;;;10480066;28;20217;-80
2021/03/08 14:49:30;;;;;;;9.37;8.57;;;8.10;53.70;;;;;;10482055;28;20208;-80
2021/03/08 14:54:32;;;;;;;10.17;9.13;;;8.10;53.10;;;;;;10487870;28;20251;-81
2021/03/08 14:59:34;;;;;;;9.50;8.30;;;8.20;53.40;;;;;;10491631;28;20657;-81
2021/03/08 15:04:36;;;;;;;9.47;8.57;;;8.20;53.30;;;;;;10484636;28;20204;-82
2021/03/08 15:09:38;;;;;;;9.17;8.37;;;8.20;52.90;;;;;;10483685;28;20197;-80
2021/03/08 15:14:40;;;;;;;10.30;9.33;;;8.20;52.70;;;;;;10499356;28;20216;-81
2021/03/08 15:19:44;;;;;;;8.87;8.10;;;8.20;52.40;;;;;;10497021;28;20668;-80
2021/03/08 15:24:46;;;;;;;8.80;7.90;;;8.20;55.10;;;;;;10497782;28;20721;-81
2021/03/08 15:29:48;;;;;;;9.17;8.10;;;8.20;54.10;;;;;;10500066;28;20612;-80
2021/03/08 15:34:50;;;;;;;8.90;8.00;;;8.20;53.80;;;;;;10498172;28;20216;-81
2021/03/08 15:39:52;;;;;;;9.17;8.37;;;8.20;54.00;;;;;;10501066;28;20205;-81
2021/03/08 15:44:53;;;;;;;8.73;7.93;;;8.20;53.90;;;;;;10484631;28;20288;-81
2021/03/08 15:49:56;;;;;;;9.30;8.50;;;8.20;54.60;;;;;;10499781;28;20714;-81
2021/03/08 15:54:59;;;;;;;9.17;8.37;;;8.10;55.20;;;;;;10500472;28;20212;-81
2021/03/08 16:00:01;;;;;;;8.30;7.50;;;8.10;54.70;;;;;;10507553;28;20572;-81
2021/03/08 16:05:04;;;;;;;8.87;7.90;;;8.10;55.90;;;;;;10507025;28;20212;-81
2021/03/08 16:10:07;;;;;;;7.47;6.70;;;8.00;55.10;;;;;;10513819;28;20197;-81
2021/03/08 16:15:10;;;;;;;8.23;7.30;;;8.00;53.10;;;;;;10507385;28;20231;-81
2021/03/08 16:20:14;;;;;;;8.23;7.43;;;8.00;56.80;;;;;;10505774;28;20570;-81
2021/03/08 16:25:16;;;;;;;8.57;7.53;;;7.90;55.90;;;;;;10505555;28;20580;-80
2021/03/08 16:30:19;;;;;;;10.53;7.80;;;7.90;56.70;;;;;;10490288;28;20204;-80
2021/03/08 16:35:22;;;;;;;7.50;6.80;;;7.80;55.80;;;;;;10495985;28;20242;-81
2021/03/08 16:40:23;;;;;;;7.13;6.53;;;7.80;56.80;;;;;;10490995;28;20620;-81
2021/03/08 16:45:25;;;;;;;6.63;6.03;;;7.80;55.90;;;;;;10486969;28;20224;-81
2021/03/08 16:50:28;;;;;;;6.90;6.30;;;7.70;57.60;;;;;;10488324;28;20708;-81
2021/03/08 16:55:32;;;;;;;7.13;6.43;;;7.70;56.60;;;;;;10469167;28;20197;-80
2021/03/08 17:00:33;;;;;;;7.80;6.80;;;7.70;56.50;;;;;;10489154;28;20226;-80
2021/03/08 17:05:36;;;;;;;8.83;7.50;;;7.60;56.80;;;;;;10521079;28;20591;-79
2021/03/08 17:10:38;;;;;;;8.00;7.20;;;7.60;58.10;;;;;;10477932;28;20235;-79
2021/03/08 17:15:41;;;;;;;7.70;7.00;;;7.50;58.20;;;;;;10492543;28;20197;-79
2021/03/08 17:20:44;;;;;;;8.60;7.13;;;7.50;57.50;;;;;;10501021;28;20232;-80
2021/03/08 17:25:45;;;;;;;8.97;8.13;;;7.40;58.50;;;;;;10498587;28;20204;-78
2021/03/08 17:30:47;;;;;;;10.40;9.20;;;7.40;57.90;;;;;;10498425;28;20231;-78
2021/03/08 17:35:49;;;;;;;9.80;8.90;;;7.20;58.30;;;;;;10481233;28;20232;-79
2021/03/08 17:40:51;;;;;;;9.20;8.40;;;7.00;58.20;;;;;;10497248;28;20227;-79
2021/03/08 17:45:53;;;;;;;8.80;8.00;;;6.90;58.60;;;;;;10498437;28;20216;-78
2021/03/08 17:50:55;;;;;;;10.30;8.73;;;6.70;59.20;;;;;;10496991;28;20358;-78
2021/03/08 17:55:57;;;;;;;12.57;11.27;;;6.50;59.70;;;;;;10505313;28;20200;-78
2021/03/08 18:00:59;;;;;;;12.57;11.33;;;6.40;60.30;;;;;;10498301;28;20604;-77
2021/03/08 18:06:01;;;;;;;11.50;10.40;;;6.20;60.80;;;;;;10481094;28;20219;-78
2021/03/08 18:11:03;;;;;;;11.53;9.70;;;6.10;61.50;;;;;;10465786;28;20220;-79
2021/03/08 18:16:05;;;;;;;11.33;9.73;;;6.00;62.50;;;;;;10476654;28;20671;-78
2021/03/08 18:21:08;;;;;;;9.67;8.63;;;5.90;63.20;;;;;;10476943;28;20298;-78
2021/03/08 18:26:10;;;;;;;11.67;9.30;;;5.80;63.90;;;;;;10477566;28;20215;-79
2021/03/08 18:31:11;;;;;;;11.00;9.90;;;5.70;64.70;;;;;;10493048;28;20310;-78
2021/03/08 18:36:14;;;;;;;10.57;9.03;;;5.70;65.20;;;;;;10485614;28;20199;-79
2021/03/08 18:41:16;;;;;;;9.87;8.97;;;5.70;65.70;;;;;;10473314;28;20256;-77
2021/03/08 18:46:19;;;;;;;9.40;7.70;;;5.70;65.90;;;;;;10469911;28;20255;-78
2021/03/08 18:51:22;;;;;;;9.00;8.20;;;5.60;66.30;;;;;;10472918;28;20244;-78
2021/03/08 18:56:24;;;;;;;8.93;7.83;;;5.60;66.70;;;;;;10469607;28;20193;-78
2021/03/08 19:01:26;;;;;;;8.47;7.73;;;5.50;67.10;;;;;;10478864;28;20759;-78
2021/03/08 19:06:28;;;;;;;8.43;7.63;;;5.50;67.60;;;;;;10484993;28;20220;-78
2021/03/08 19:11:31;;;;;;;9.10;8.20;;;5.50;68.40;;;;;;10484582;28;20580;-77
2021/03/08 19:16:33;;;;;;;7.60;6.47;;;5.40;68.60;;;;;;10485402;28;20272;-78
2021/03/08 19:21:36;;;;;;;10.70;7.70;;;5.40;69.10;;;;;;10488368;28;20226;-79
2021/03/08 19:26:38;;;;;;;8.87;7.27;;;5.40;69.50;;;;;;10471714;28;20270;-77
2021/03/08 19:31:40;;;;;;;7.60;6.80;;;5.40;69.60;;;;;;10483120;28;20382;-77
2021/03/08 19:36:43;;;;;;;8.60;7.27;;;5.40;70.00;;;;;;10484594;28;20208;-78
2021/03/08 19:41:47;;;;;;;8.13;7.33;;;5.40;70.00;;;;;;10483667;28;20701;-77
2021/03/08 19:46:49;;;;;;;8.00;7.10;;;5.40;70.30;;;;;;10482328;28;20243;-78
2021/03/08 19:51:51;;;;;;;8.33;7.40;;;5.40;70.70;;;;;;10485025;28;20535;-79
2021/03/08 19:56:53;;;;;;;7.70;6.80;;;5.40;71.10;;;;;;10466435;28;20231;-78
2021/03/08 20:01:55;;;;;;;9.40;8.50;;;5.40;71.40;;;;;;10467278;28;20248;-78
2021/03/08 20:06:57;;;;;;;32.00;19.77;;;5.30;71.20;;;;;;10465209;28;20212;-77
2021/03/08 20:11:59;;;;;;;17.70;14.83;;;5.40;70.90;;;;;;10467841;28;20717;-80
2021/03/08 20:17:01;;;;;;;10.47;9.20;;;5.30;70.90;;;;;;10472388;28;20200;-79
2021/03/08 20:22:05;;;;;;;11.73;10.40;;;5.30;71.10;;;;;;10463394;28;20263;-80
2021/03/08 20:27:08;;;;;;;11.47;9.90;;;5.20;71.40;;;;;;10469998;28;20228;-80
2021/03/08 20:32:10;;;;;;;9.43;8.53;;;5.10;71.90;;;;;;10471398;28;20587;-80
2021/03/08 20:37:12;;;;;;;8.37;7.43;;;5.00;71.90;;;;;;10467462;28;20189;-79
2021/03/08 20:42:15;;;;;;;10.00;9.00;;;4.90;72.10;;;;;;10467199;28;20227;-79
2021/03/08 20:47:16;;;;;;;11.40;9.00;;;4.80;72.40;;;;;;10470267;28;20236;-79
2021/03/08 20:52:19;;;;;;;9.67;8.13;;;4.80;72.80;;;;;;10480361;28;20228;-78
2021/03/08 20:57:21;;;;;;;10.70;9.70;;;4.70;72.90;;;;;;10489435;28;20200;-79
2021/03/08 21:02:22;;;;;;;10.80;9.70;;;4.60;73.40;;;;;;10488244;28;20306;-79
2021/03/08 21:07:25;;;;;;;11.17;10.07;;;4.50;74.20;;;;;;10484481;28;20240;-79
2021/03/08 21:12:28;;;;;;;11.70;10.50;;;4.40;73.70;;;;;;10487254;28;20228;-80
2021/03/08 21:17:30;;;;;;;11.70;10.60;;;4.40;74.20;;;;;;10487184;28;20615;-79
2021/03/08 21:22:32;;;;;;;13.33;11.80;;;4.30;74.30;;;;;;10488983;28;20270;-79
2021/03/08 21:27:34;;;;;;;12.03;10.80;;;4.20;74.70;;;;;;10486043;28;20692;-80
2021/03/08 21:32:36;;;;;;;14.53;12.47;;;4.20;75.10;;;;;;10487469;28;20647;-79
2021/03/08 21:37:40;;;;;;;13.90;10.73;;;4.10;75.20;;;;;;10485952;28;20204;-79
2021/03/08 21:42:41;;;;;;;10.80;9.70;;;4.00;75.80;;;;;;10477090;28;20764;-79
2021/03/08 21:47:44;;;;;;;12.07;8.70;;;4.00;75.70;;;;;;10462308;28;20224;-79
2021/03/08 21:52:48;;;;;;;10.33;9.23;;;3.90;76.10;;;;;;10478377;28;20225;-79
2021/03/08 21:57:52;;;;;;;10.70;9.60;;;3.90;76.30;;;;;;10489543;28;20201;-79
2021/03/08 22:02:55;;;;;;;10.70;9.70;;;3.90;76.50;;;;;;10499355;28;20298;-78
2021/03/08 22:07:58;;;;;;;13.93;9.70;;;3.80;76.50;;;;;;10478585;28;20677;-77
2021/03/08 22:12:59;;;;;;;9.87;8.97;;;3.70;77.90;;;;;;10488769;28;20232;-78
2021/03/08 22:18:01;;;;;;;8.83;7.80;;;3.60;77.20;;;;;;10466673;28;20200;-79
2021/03/08 22:23:04;;;;;;;9.23;7.83;;;3.60;77.50;;;;;;10486264;28;20221;-79
2021/03/08 22:28:06;;;;;;;10.90;8.27;;;3.50;77.30;;;;;;10486059;28;20216;-79
2021/03/08 22:33:07;;;;;;;8.77;7.87;;;3.50;77.90;;;;;;10488878;28;20216;-79
2021/03/08 22:38:10;;;;;;;9.57;8.50;;;3.40;78.30;;;;;;10481520;28;20196;-79
2021/03/08 22:43:12;;;;;;;11.87;10.10;;;3.40;78.50;;;;;;10478547;28;20216;-79
2021/03/08 22:48:14;;;;;;;10.57;9.50;;;3.40;78.30;;;;;;10481718;28;20215;-79
2021/03/08 22:53:17;;;;;;;9.67;8.67;;;3.30;78.40;;;;;;10480134;28;20303;-80
2021/03/08 22:58:22;;;;;;;8.77;7.87;;;3.30;79.60;;;;;;10482922;28;20216;-78
2021/03/08 23:03:24;;;;;;;8.70;7.80;;;3.20;78.80;;;;;;10479806;28;20213;-78
2021/03/08 23:08:27;;;;;;;9.63;8.63;;;3.20;79.10;;;;;;10476260;28;20270;-78
2021/03/08 23:13:29;;;;;;;10.40;9.50;;;3.20;79.10;;;;;;10477950;28;20224;-78
2021/03/08 23:18:30;;;;;;;9.90;8.90;;;3.10;79.50;;;;;;10491917;28;20196;-78
2021/03/08 23:23:33;;;;;;;10.53;9.30;;;3.10;79.60;;;;;;10494906;28;20700;-78
2021/03/08 23:28:35;;;;;;;9.73;8.40;;;3.00;79.60;;;;;;10492986;28;20722;-78
2021/03/08 23:33:37;;;;;;;11.10;9.00;;;3.00;80.00;;;;;;10495298;28;20581;-78
2021/03/08 23:38:40;;;;;;;9.50;8.50;;;3.00;80.40;;;;;;10494900;28;20548;-78
2021/03/08 23:43:41;;;;;;;11.23;8.90;;;2.90;80.10;;;;;;10494295;28;20473;-78
2021/03/08 23:48:43;;;;;;;9.63;8.67;;;2.90;80.20;;;;;;10494457;28;20581;-78
2021/03/08 23:53:46;;;;;;;10.83;8.83;;;2.80;80.40;;;;;;10492421;28;20220;-78
2021/03/08 23:58:48;;;;;;;11.20;9.67;;;2.70;81.30;;;;;;10494158;28;20188;-79
